sensor_id;sensor_type;location;lat;lon;timestamp;temperature;humidity
14283;DHT22;7225;59.282;18.344;2022-08-01T00:00:57;16.70;99.90
14283;DHT22;7225;59.282;18.344;2022-08-01T00:03:25;16.70;99.90
14283;DHT22;7225;59.282;18.344;2022-08-01T00:05:52;16.70;99.90
14283;DHT22;7225;59.282;18.344;2022-08-01T00:08:20;16.70;99.90
14283;DHT22;7225;59.282;18.344;2022-08-01T00:10:48;16.70;99.90
14283;DHT22;7225;59.282;18.344;2022-08-01T00:13:18;16.80;99.90
14283;DHT22;7225;59.282;18.344;2022-08-01T00:15:46;16.70;99.90
14283;DHT22;7225;59.282;18.344;2022-08-01T00:18:21;16.70;99.90
14283;DHT22;7225;59.282;18.344;2022-08-01T00:20:49;16.70;99.90
14283;DHT22;7225;59.282;18.344;2022-08-01T00:23:16;16.70;99.90
14283;DHT22;7225;59.282;18.344;2022-08-01T00:25:43;16.70;99.90
14283;DHT22;7225;59.282;18.344;2022-08-01T00:28:10;16.70;99.90
14283;DHT22;7225;59.282;18.344;2022-08-01T00:30:37;16.70;99.90
14283;DHT22;7225;59.282;18.344;2022-08-01T00:33:04;16.70;99.90
14283;DHT22;7225;59.282;18.344;2022-08-01T00:35:32;16.70;99.90
14283;DHT22;7225;59.282;18.344;2022-08-01T00:37:59;16.70;99.90
14283;DHT22;7225;59.282;18.344;2022-08-01T00:40:26;16.70;99.90
14283;DHT22;7225;59.282;18.344;2022-08-01T00:42:53;16.70;99.90
14283;DHT22;7225;59.282;18.344;2022-08-01T00:45:20;16.70;99.90
14283;DHT22;7225;59.282;18.344;2022-08-01T00:47:47;16.70;99.90
14283;DHT22;7225;59.282;18.344;2022-08-01T00:50:21;16.70;99.90
14283;DHT22;7225;59.282;18.344;2022-08-01T00:52:51;16.60;99.90
14283;DHT22;7225;59.282;18.344;2022-08-01T00:55:20;16.60;99.90
14283;DHT22;7225;59.282;18.344;2022-08-01T00:57:49;16.70;99.90
14283;DHT22;7225;59.282;18.344;2022-08-01T01:00:34;16.60;99.90
14283;DHT22;7225;59.282;18.344;2022-08-01T01:03:22;16.60;99.90
14283;DHT22;7225;59.282;18.344;2022-08-01T01:07:17;16.60;99.90
14283;DHT22;7225;59.282;18.344;2022-08-01T01:17:52;16.50;99.90
14283;DHT22;7225;59.282;18.344;2022-08-01T01:20:32;16.40;99.90
14283;DHT22;7225;59.282;18.344;2022-08-01T01:28:29;16.30;99.90
14283;DHT22;7225;59.282;18.344;2022-08-01T01:31:02;16.20;99.90
14283;DHT22;7225;59.282;18.344;2022-08-01T01:33:34;16.20;99.90
14283;DHT22;7225;59.282;18.344;2022-08-01T01:36:14;16.20;99.90
14283;DHT22;7225;59.282;18.344;2022-08-01T01:38:44;16.20;99.90
14283;DHT22;7225;59.282;18.344;2022-08-01T01:41:14;16.20;99.90
14283;DHT22;7225;59.282;18.344;2022-08-01T01:43:43;16.10;99.90
14283;DHT22;7225;59.282;18.344;2022-08-01T01:46:18;16.10;99.90
14283;DHT22;7225;59.282;18.344;2022-08-01T01:48:46;16.00;99.90
14283;DHT22;7225;59.282;18.344;2022-08-01T01:51:16;16.00;99.90
14283;DHT22;7225;59.282;18.344;2022-08-01T01:53:45;16.00;99.90
14283;DHT22;7225;59.282;18.344;2022-08-01T01:56:14;16.00;99.90
14283;DHT22;7225;59.282;18.344;2022-08-01T01:58:43;16.00;99.90
14283;DHT22;7225;59.282;18.344;2022-08-01T02:01:11;16.00;99.90
14283;DHT22;7225;59.282;18.344;2022-08-01T02:03:42;16.00;99.90
14283;DHT22;7225;59.282;18.344;2022-08-01T02:06:12;15.90;99.90
14283;DHT22;7225;59.282;18.344;2022-08-01T02:08:42;15.90;99.90
14283;DHT22;7225;59.282;18.344;2022-08-01T02:11:10;15.90;99.90
14283;DHT22;7225;59.282;18.344;2022-08-01T02:13:58;15.90;99.90
14283;DHT22;7225;59.282;18.344;2022-08-01T02:16:31;15.90;99.90
14283;DHT22;7225;59.282;18.344;2022-08-01T02:19:00;15.90;99.90
14283;DHT22;7225;59.282;18.344;2022-08-01T02:21:37;15.80;99.90
14283;DHT22;7225;59.282;18.344;2022-08-01T02:25:20;15.80;99.90
14283;DHT22;7225;59.282;18.344;2022-08-01T02:27:23;15.80;99.90
14283;DHT22;7225;59.282;18.344;2022-08-01T02:30:03;15.90;99.90
14283;DHT22;7225;59.282;18.344;2022-08-01T02:32:44;15.90;99.90
14283;DHT22;7225;59.282;18.344;2022-08-01T02:35:26;15.80;99.90
14283;DHT22;7225;59.282;18.344;2022-08-01T02:37:56;15.90;99.90
14283;DHT22;7225;59.282;18.344;2022-08-01T02:40:31;15.90;99.90
14283;DHT22;7225;59.282;18.344;2022-08-01T02:43:02;15.90;99.90
14283;DHT22;7225;59.282;18.344;2022-08-01T02:45:31;15.90;99.90
14283;DHT22;7225;59.282;18.344;2022-08-01T02:48:14;15.90;99.90
14283;DHT22;7225;59.282;18.344;2022-08-01T02:50:45;16.00;99.90
14283;DHT22;7225;59.282;18.344;2022-08-01T02:53:19;16.00;99.90
14283;DHT22;7225;59.282;18.344;2022-08-01T02:55:48;16.00;99.90
14283;DHT22;7225;59.282;18.344;2022-08-01T02:58:18;16.00;99.90
14283;DHT22;7225;59.282;18.344;2022-08-01T03:00:54;16.00;99.90
14283;DHT22;7225;59.282;18.344;2022-08-01T03:03:23;16.10;99.90
14283;DHT22;7225;59.282;18.344;2022-08-01T03:05:53;16.10;99.90
14283;DHT22;7225;59.282;18.344;2022-08-01T03:08:20;16.10;99.90
14283;DHT22;7225;59.282;18.344;2022-08-01T03:10:50;16.20;99.90
14283;DHT22;7225;59.282;18.344;2022-08-01T03:13:21;16.20;99.90
14283;DHT22;7225;59.282;18.344;2022-08-01T03:15:49;16.20;99.90
14283;DHT22;7225;59.282;18.344;2022-08-01T03:18:17;16.20;99.90
14283;DHT22;7225;59.282;18.344;2022-08-01T03:20:45;16.30;99.90
14283;DHT22;7225;59.282;18.344;2022-08-01T03:23:15;16.30;99.90
14283;DHT22;7225;59.282;18.344;2022-08-01T03:25:44;16.30;99.90
14283;DHT22;7225;59.282;18.344;2022-08-01T03:28:14;16.40;99.90
14283;DHT22;7225;59.282;18.344;2022-08-01T03:30:44;16.40;99.90
14283;DHT22;7225;59.282;18.344;2022-08-01T03:33:11;16.40;99.90
14283;DHT22;7225;59.282;18.344;2022-08-01T03:35:46;16.50;99.90
14283;DHT22;7225;59.282;18.344;2022-08-01T03:38:19;16.60;99.90
14283;DHT22;7225;59.282;18.344;2022-08-01T03:41:02;16.70;99.90
14283;DHT22;7225;59.282;18.344;2022-08-01T03:43:37;16.70;99.90
14283;DHT22;7225;59.282;18.344;2022-08-01T03:46:17;16.80;99.90
14283;DHT22;7225;59.282;18.344;2022-08-01T03:48:48;16.80;99.90
14283;DHT22;7225;59.282;18.344;2022-08-01T03:51:18;16.80;99.90
14283;DHT22;7225;59.282;18.344;2022-08-01T03:53:47;16.90;99.90
14283;DHT22;7225;59.282;18.344;2022-08-01T03:56:18;17.00;99.90
14283;DHT22;7225;59.282;18.344;2022-08-01T03:58:51;17.00;99.90
14283;DHT22;7225;59.282;18.344;2022-08-01T04:01:18;17.00;99.90
14283;DHT22;7225;59.282;18.344;2022-08-01T04:03:46;17.10;99.90
14283;DHT22;7225;59.282;18.344;2022-08-01T04:06:14;17.20;99.90
14283;DHT22;7225;59.282;18.344;2022-08-01T04:08:43;17.20;99.90
14283;DHT22;7225;59.282;18.344;2022-08-01T04:11:27;17.20;99.90
14283;DHT22;7225;59.282;18.344;2022-08-01T04:13:55;17.30;99.90
14283;DHT22;7225;59.282;18.344;2022-08-01T04:16:24;17.30;99.90
14283;DHT22;7225;59.282;18.344;2022-08-01T04:18:51;17.30;99.90
14283;DHT22;7225;59.282;18.344;2022-08-01T04:21:28;17.30;99.90
14283;DHT22;7225;59.282;18.344;2022-08-01T04:23:59;17.40;99.90
14283;DHT22;7225;59.282;18.344;2022-08-01T04:26:30;17.40;99.90
14283;DHT22;7225;59.282;18.344;2022-08-01T04:29:00;17.40;99.90
14283;DHT22;7225;59.282;18.344;2022-08-01T04:31:31;17.50;99.90
14283;DHT22;7225;59.282;18.344;2022-08-01T04:34:01;17.50;99.90
14283;DHT22;7225;59.282;18.344;2022-08-01T04:36:30;17.50;99.90
14283;DHT22;7225;59.282;18.344;2022-08-01T04:39:02;17.50;99.90
14283;DHT22;7225;59.282;18.344;2022-08-01T04:41:31;17.60;99.90
14283;DHT22;7225;59.282;18.344;2022-08-01T04:44:00;17.60;99.90
14283;DHT22;7225;59.282;18.344;2022-08-01T04:46:29;17.60;99.90
14283;DHT22;7225;59.282;18.344;2022-08-01T04:48:56;17.60;99.90
14283;DHT22;7225;59.282;18.344;2022-08-01T04:51:24;17.70;99.90
14283;DHT22;7225;59.282;18.344;2022-08-01T04:53:52;17.70;99.90
14283;DHT22;7225;59.282;18.344;2022-08-01T04:56:20;17.80;99.90
14283;DHT22;7225;59.282;18.344;2022-08-01T04:58:48;17.80;99.90
14283;DHT22;7225;59.282;18.344;2022-08-01T05:01:41;17.90;99.90
14283;DHT22;7225;59.282;18.344;2022-08-01T05:04:10;18.00;99.90
14283;DHT22;7225;59.282;18.344;2022-08-01T05:06:38;18.00;99.90
14283;DHT22;7225;59.282;18.344;2022-08-01T05:09:06;18.10;99.90
14283;DHT22;7225;59.282;18.344;2022-08-01T05:11:34;18.20;99.90
14283;DHT22;7225;59.282;18.344;2022-08-01T05:14:02;18.30;99.90
14283;DHT22;7225;59.282;18.344;2022-08-01T05:16:30;18.40;99.90
14283;DHT22;7225;59.282;18.344;2022-08-01T05:18:57;18.40;99.90
14283;DHT22;7225;59.282;18.344;2022-08-01T05:21:25;18.50;99.90
14283;DHT22;7225;59.282;18.344;2022-08-01T05:23:54;18.60;99.90
14283;DHT22;7225;59.282;18.344;2022-08-01T05:26:22;18.70;99.90
14283;DHT22;7225;59.282;18.344;2022-08-01T05:28:50;18.80;99.90
14283;DHT22;7225;59.282;18.344;2022-08-01T05:31:20;18.80;99.90
14283;DHT22;7225;59.282;18.344;2022-08-01T05:33:48;18.90;99.90
14283;DHT22;7225;59.282;18.344;2022-08-01T05:36:17;18.90;99.90
14283;DHT22;7225;59.282;18.344;2022-08-01T05:38:44;19.00;99.90
14283;DHT22;7225;59.282;18.344;2022-08-01T05:41:12;19.10;99.90
14283;DHT22;7225;59.282;18.344;2022-08-01T05:43:40;19.10;99.90
14283;DHT22;7225;59.282;18.344;2022-08-01T05:46:06;19.10;99.90
14283;DHT22;7225;59.282;18.344;2022-08-01T05:48:33;19.10;99.90
14283;DHT22;7225;59.282;18.344;2022-08-01T05:51:01;19.20;99.90
14283;DHT22;7225;59.282;18.344;2022-08-01T05:53:29;19.20;99.90
14283;DHT22;7225;59.282;18.344;2022-08-01T05:55:56;19.30;99.90
14283;DHT22;7225;59.282;18.344;2022-08-01T05:58:24;19.30;99.90
14283;DHT22;7225;59.282;18.344;2022-08-01T06:00:52;19.30;99.90
14283;DHT22;7225;59.282;18.344;2022-08-01T06:03:19;19.30;99.90
14283;DHT22;7225;59.282;18.344;2022-08-01T06:05:46;19.30;99.90
14283;DHT22;7225;59.282;18.344;2022-08-01T06:08:15;19.40;99.90
14283;DHT22;7225;59.282;18.344;2022-08-01T06:10:44;19.40;99.90
14283;DHT22;7225;59.282;18.344;2022-08-01T06:13:11;19.40;99.90
14283;DHT22;7225;59.282;18.344;2022-08-01T06:15:39;19.40;99.90
14283;DHT22;7225;59.282;18.344;2022-08-01T06:18:07;19.40;99.90
14283;DHT22;7225;59.282;18.344;2022-08-01T06:20:34;19.50;99.90
14283;DHT22;7225;59.282;18.344;2022-08-01T06:23:01;19.50;99.90
14283;DHT22;7225;59.282;18.344;2022-08-01T06:25:52;19.50;99.90
14283;DHT22;7225;59.282;18.344;2022-08-01T06:28:21;19.60;99.90
14283;DHT22;7225;59.282;18.344;2022-08-01T06:30:50;19.60;99.90
14283;DHT22;7225;59.282;18.344;2022-08-01T06:33:19;19.60;99.90
14283;DHT22;7225;59.282;18.344;2022-08-01T06:35:47;19.60;99.90
14283;DHT22;7225;59.282;18.344;2022-08-01T06:38:14;19.70;99.90
14283;DHT22;7225;59.282;18.344;2022-08-01T06:40:42;19.80;99.90
14283;DHT22;7225;59.282;18.344;2022-08-01T06:43:10;19.90;99.90
14283;DHT22;7225;59.282;18.344;2022-08-01T06:45:41;19.80;99.90
14283;DHT22;7225;59.282;18.344;2022-08-01T06:48:11;19.80;99.90
14283;DHT22;7225;59.282;18.344;2022-08-01T06:50:39;19.80;99.90
14283;DHT22;7225;59.282;18.344;2022-08-01T06:53:07;19.80;99.90
14283;DHT22;7225;59.282;18.344;2022-08-01T06:55:34;19.80;99.90
14283;DHT22;7225;59.282;18.344;2022-08-01T06:58:02;19.90;99.90
14283;DHT22;7225;59.282;18.344;2022-08-01T07:00:32;20.10;99.90
14283;DHT22;7225;59.282;18.344;2022-08-01T07:03:00;20.20;99.90
14283;DHT22;7225;59.282;18.344;2022-08-01T07:05:29;20.20;99.90
14283;DHT22;7225;59.282;18.344;2022-08-01T07:07:58;20.20;99.90
14283;DHT22;7225;59.282;18.344;2022-08-01T07:10:26;20.10;99.90
14283;DHT22;7225;59.282;18.344;2022-08-01T07:12:56;20.20;99.90
14283;DHT22;7225;59.282;18.344;2022-08-01T07:15:24;20.20;99.90
14283;DHT22;7225;59.282;18.344;2022-08-01T07:17:54;20.30;99.90
14283;DHT22;7225;59.282;18.344;2022-08-01T07:20:23;20.40;99.90
14283;DHT22;7225;59.282;18.344;2022-08-01T07:22:52;20.50;99.90
14283;DHT22;7225;59.282;18.344;2022-08-01T07:25:23;20.60;99.90
14283;DHT22;7225;59.282;18.344;2022-08-01T07:27:51;20.70;99.90
14283;DHT22;7225;59.282;18.344;2022-08-01T07:30:19;20.80;99.90
14283;DHT22;7225;59.282;18.344;2022-08-01T07:32:48;21.00;99.90
14283;DHT22;7225;59.282;18.344;2022-08-01T07:35:17;21.10;99.90
14283;DHT22;7225;59.282;18.344;2022-08-01T07:37:45;21.10;99.90
14283;DHT22;7225;59.282;18.344;2022-08-01T07:40:17;21.10;99.90
14283;DHT22;7225;59.282;18.344;2022-08-01T07:42:46;21.10;99.90
14283;DHT22;7225;59.282;18.344;2022-08-01T07:45:14;21.20;99.90
14283;DHT22;7225;59.282;18.344;2022-08-01T07:47:43;21.20;99.90
14283;DHT22;7225;59.282;18.344;2022-08-01T07:50:11;21.10;99.90
14283;DHT22;7225;59.282;18.344;2022-08-01T07:52:42;21.20;99.90
14283;DHT22;7225;59.282;18.344;2022-08-01T07:55:12;21.10;99.90
14283;DHT22;7225;59.282;18.344;2022-08-01T07:57:44;21.10;99.90
14283;DHT22;7225;59.282;18.344;2022-08-01T08:00:14;21.20;99.90
14283;DHT22;7225;59.282;18.344;2022-08-01T08:02:41;21.20;99.90
14283;DHT22;7225;59.282;18.344;2022-08-01T08:05:10;21.30;99.90
14283;DHT22;7225;59.282;18.344;2022-08-01T08:07:39;21.30;99.90
14283;DHT22;7225;59.282;18.344;2022-08-01T08:10:08;21.20;99.90
14283;DHT22;7225;59.282;18.344;2022-08-01T08:12:36;21.20;99.90
14283;DHT22;7225;59.282;18.344;2022-08-01T08:15:05;21.20;99.90
14283;DHT22;7225;59.282;18.344;2022-08-01T08:17:32;21.30;99.90
14283;DHT22;7225;59.282;18.344;2022-08-01T08:20:05;21.40;99.90
14283;DHT22;7225;59.282;18.344;2022-08-01T08:22:38;21.50;99.90
14283;DHT22;7225;59.282;18.344;2022-08-01T08:25:08;21.30;99.90
14283;DHT22;7225;59.282;18.344;2022-08-01T08:27:38;21.40;99.90
14283;DHT22;7225;59.282;18.344;2022-08-01T08:30:07;21.60;99.90
14283;DHT22;7225;59.282;18.344;2022-08-01T08:32:36;21.70;99.90
14283;DHT22;7225;59.282;18.344;2022-08-01T08:35:07;21.90;99.90
14283;DHT22;7225;59.282;18.344;2022-08-01T08:37:41;22.10;99.90
14283;DHT22;7225;59.282;18.344;2022-08-01T08:40:15;22.20;99.90
14283;DHT22;7225;59.282;18.344;2022-08-01T08:42:44;22.40;99.90
14283;DHT22;7225;59.282;18.344;2022-08-01T08:45:13;22.60;99.90
14283;DHT22;7225;59.282;18.344;2022-08-01T08:47:43;22.70;99.90
14283;DHT22;7225;59.282;18.344;2022-08-01T08:50:15;22.80;99.90
14283;DHT22;7225;59.282;18.344;2022-08-01T08:52:44;22.80;99.90
14283;DHT22;7225;59.282;18.344;2022-08-01T08:55:12;22.70;99.90
14283;DHT22;7225;59.282;18.344;2022-08-01T08:57:44;22.80;99.90
14283;DHT22;7225;59.282;18.344;2022-08-01T09:00:15;22.90;99.90
14283;DHT22;7225;59.282;18.344;2022-08-01T09:02:44;23.00;99.90
14283;DHT22;7225;59.282;18.344;2022-08-01T09:05:14;22.90;99.90
14283;DHT22;7225;59.282;18.344;2022-08-01T09:07:48;23.00;99.90
14283;DHT22;7225;59.282;18.344;2022-08-01T09:10:17;23.00;99.90
14283;DHT22;7225;59.282;18.344;2022-08-01T09:15:43;23.00;99.90
14283;DHT22;7225;59.282;18.344;2022-08-01T09:18:37;23.20;99.90
14283;DHT22;7225;59.282;18.344;2022-08-01T09:21:09;23.70;99.90
14283;DHT22;7225;59.282;18.344;2022-08-01T09:23:40;24.00;99.90
14283;DHT22;7225;59.282;18.344;2022-08-01T09:26:31;24.30;99.90
14283;DHT22;7225;59.282;18.344;2022-08-01T09:29:05;24.50;99.90
14283;DHT22;7225;59.282;18.344;2022-08-01T09:31:42;24.70;99.90
14283;DHT22;7225;59.282;18.344;2022-08-01T09:34:16;24.90;99.90
14283;DHT22;7225;59.282;18.344;2022-08-01T09:36:57;24.70;99.90
14283;DHT22;7225;59.282;18.344;2022-08-01T09:39:29;24.90;99.90
14283;DHT22;7225;59.282;18.344;2022-08-01T09:42:00;25.00;99.90
14283;DHT22;7225;59.282;18.344;2022-08-01T09:44:40;25.10;99.90
14283;DHT22;7225;59.282;18.344;2022-08-01T09:47:13;25.20;99.90
14283;DHT22;7225;59.282;18.344;2022-08-01T09:49:43;25.10;99.90
14283;DHT22;7225;59.282;18.344;2022-08-01T09:52:24;25.30;99.90
14283;DHT22;7225;59.282;18.344;2022-08-01T09:55:00;25.30;99.90
14283;DHT22;7225;59.282;18.344;2022-08-01T09:57:28;25.50;99.90
14283;DHT22;7225;59.282;18.344;2022-08-01T10:00:00;25.80;99.90
14283;DHT22;7225;59.282;18.344;2022-08-01T10:02:35;25.90;99.90
14283;DHT22;7225;59.282;18.344;2022-08-01T10:05:06;25.70;99.90
14283;DHT22;7225;59.282;18.344;2022-08-01T10:07:55;25.60;99.90
14283;DHT22;7225;59.282;18.344;2022-08-01T10:10:26;25.30;99.90
14283;DHT22;7225;59.282;18.344;2022-08-01T10:12:58;25.20;99.90
14283;DHT22;7225;59.282;18.344;2022-08-01T10:15:27;25.30;99.90
14283;DHT22;7225;59.282;18.344;2022-08-01T10:18:07;25.40;99.90
14283;DHT22;7225;59.282;18.344;2022-08-01T10:20:53;25.40;99.90
14283;DHT22;7225;59.282;18.344;2022-08-01T10:23:25;25.30;99.90
14283;DHT22;7225;59.282;18.344;2022-08-01T10:26:12;25.20;99.90
14283;DHT22;7225;59.282;18.344;2022-08-01T10:28:44;25.20;99.90
14283;DHT22;7225;59.282;18.344;2022-08-01T10:31:16;25.10;99.90
14283;DHT22;7225;59.282;18.344;2022-08-01T10:33:45;25.10;99.90
14283;DHT22;7225;59.282;18.344;2022-08-01T10:36:21;25.00;99.90
14283;DHT22;7225;59.282;18.344;2022-08-01T10:38:55;24.90;99.90
14283;DHT22;7225;59.282;18.344;2022-08-01T10:41:24;24.90;99.90
14283;DHT22;7225;59.282;18.344;2022-08-01T10:43:54;25.00;99.90
14283;DHT22;7225;59.282;18.344;2022-08-01T10:46:22;25.10;99.90
14283;DHT22;7225;59.282;18.344;2022-08-01T10:48:58;25.20;99.90
14283;DHT22;7225;59.282;18.344;2022-08-01T10:51:29;25.20;99.90
14283;DHT22;7225;59.282;18.344;2022-08-01T10:54:18;25.10;99.90
14283;DHT22;7225;59.282;18.344;2022-08-01T10:56:49;24.90;99.90
14283;DHT22;7225;59.282;18.344;2022-08-01T10:59:24;24.80;99.90
14283;DHT22;7225;59.282;18.344;2022-08-01T11:05:04;24.60;99.90
14283;DHT22;7225;59.282;18.344;2022-08-01T11:07:48;24.50;99.90
14283;DHT22;7225;59.282;18.344;2022-08-01T11:10:40;24.40;99.90
14283;DHT22;7225;59.282;18.344;2022-08-01T11:13:11;24.40;99.90
14283;DHT22;7225;59.282;18.344;2022-08-01T11:15:41;24.40;99.90
14283;DHT22;7225;59.282;18.344;2022-08-01T11:21:02;24.20;99.90
14283;DHT22;7225;59.282;18.344;2022-08-01T11:23:51;24.50;99.90
14283;DHT22;7225;59.282;18.344;2022-08-01T11:26:24;24.70;99.90
14283;DHT22;7225;59.282;18.344;2022-08-01T11:29:17;24.80;99.90
14283;DHT22;7225;59.282;18.344;2022-08-01T11:31:49;24.90;99.90
14283;DHT22;7225;59.282;18.344;2022-08-01T11:34:18;25.10;99.90
14283;DHT22;7225;59.282;18.344;2022-08-01T11:36:47;25.30;99.90
14283;DHT22;7225;59.282;18.344;2022-08-01T11:39:26;25.50;99.90
14283;DHT22;7225;59.282;18.344;2022-08-01T11:42:17;25.70;99.90
14283;DHT22;7225;59.282;18.344;2022-08-01T11:44:49;25.70;99.90
14283;DHT22;7225;59.282;18.344;2022-08-01T11:47:20;25.60;99.90
14283;DHT22;7225;59.282;18.344;2022-08-01T11:50:31;25.40;99.90
14283;DHT22;7225;59.282;18.344;2022-08-01T11:53:02;25.20;99.90
14283;DHT22;7225;59.282;18.344;2022-08-01T11:55:33;25.00;99.90
14283;DHT22;7225;59.282;18.344;2022-08-01T11:58:04;24.80;99.90
14283;DHT22;7225;59.282;18.344;2022-08-01T12:00:33;24.80;99.90
14283;DHT22;7225;59.282;18.344;2022-08-01T12:03:04;24.70;99.90
14283;DHT22;7225;59.282;18.344;2022-08-01T12:05:36;24.70;99.90
14283;DHT22;7225;59.282;18.344;2022-08-01T12:08:09;24.80;99.90
14283;DHT22;7225;59.282;18.344;2022-08-01T12:10:37;24.90;99.90
14283;DHT22;7225;59.282;18.344;2022-08-01T12:13:17;24.90;99.90
14283;DHT22;7225;59.282;18.344;2022-08-01T12:15:45;24.80;99.90
14283;DHT22;7225;59.282;18.344;2022-08-01T12:18:14;24.60;99.90
14283;DHT22;7225;59.282;18.344;2022-08-01T12:20:44;24.50;99.90
14283;DHT22;7225;59.282;18.344;2022-08-01T12:23:25;24.50;99.90
14283;DHT22;7225;59.282;18.344;2022-08-01T12:25:52;24.40;99.90
14283;DHT22;7225;59.282;18.344;2022-08-01T12:28:23;24.30;99.90
14283;DHT22;7225;59.282;18.344;2022-08-01T12:30:52;24.20;99.90
14283;DHT22;7225;59.282;18.344;2022-08-01T12:33:20;24.10;99.90
14283;DHT22;7225;59.282;18.344;2022-08-01T12:35:48;23.90;99.90
14283;DHT22;7225;59.282;18.344;2022-08-01T12:38:20;23.80;99.90
14283;DHT22;7225;59.282;18.344;2022-08-01T12:40:54;23.60;99.90
14283;DHT22;7225;59.282;18.344;2022-08-01T12:43:23;23.50;99.90
14283;DHT22;7225;59.282;18.344;2022-08-01T12:45:58;23.40;99.90
14283;DHT22;7225;59.282;18.344;2022-08-01T12:48:27;23.40;99.90
14283;DHT22;7225;59.282;18.344;2022-08-01T12:50:58;23.40;99.90
14283;DHT22;7225;59.282;18.344;2022-08-01T12:53:28;23.40;99.90
14283;DHT22;7225;59.282;18.344;2022-08-01T12:56:08;23.60;99.90
14283;DHT22;7225;59.282;18.344;2022-08-01T12:58:38;23.90;99.90
14283;DHT22;7225;59.282;18.344;2022-08-01T13:01:10;24.30;99.90
14283;DHT22;7225;59.282;18.344;2022-08-01T13:03:40;24.60;99.90
14283;DHT22;7225;59.282;18.344;2022-08-01T13:06:14;24.80;99.90
14283;DHT22;7225;59.282;18.344;2022-08-01T13:08:44;24.80;99.90
14283;DHT22;7225;59.282;18.344;2022-08-01T13:11:13;24.80;99.90
14283;DHT22;7225;59.282;18.344;2022-08-01T13:13:48;24.60;99.90
14283;DHT22;7225;59.282;18.344;2022-08-01T13:16:22;24.50;99.90
14283;DHT22;7225;59.282;18.344;2022-08-01T13:19:05;24.70;99.90
14283;DHT22;7225;59.282;18.344;2022-08-01T13:21:35;24.90;99.90
14283;DHT22;7225;59.282;18.344;2022-08-01T13:24:28;24.90;99.90
14283;DHT22;7225;59.282;18.344;2022-08-01T13:27:00;24.70;99.90
14283;DHT22;7225;59.282;18.344;2022-08-01T13:29:36;24.50;99.90
14283;DHT22;7225;59.282;18.344;2022-08-01T13:32:14;24.30;99.90
14283;DHT22;7225;59.282;18.344;2022-08-01T13:35:07;24.10;99.90
14283;DHT22;7225;59.282;18.344;2022-08-01T13:37:36;24.10;99.90
14283;DHT22;7225;59.282;18.344;2022-08-01T13:40:06;24.00;99.90
14283;DHT22;7225;59.282;18.344;2022-08-01T13:42:35;23.90;99.90
14283;DHT22;7225;59.282;18.344;2022-08-01T13:45:04;23.80;99.90
14283;DHT22;7225;59.282;18.344;2022-08-01T13:47:42;23.80;99.90
14283;DHT22;7225;59.282;18.344;2022-08-01T13:50:30;23.80;99.90
14283;DHT22;7225;59.282;18.344;2022-08-01T13:52:58;23.70;99.90
14283;DHT22;7225;59.282;18.344;2022-08-01T13:55:27;23.80;99.90
14283;DHT22;7225;59.282;18.344;2022-08-01T13:58:02;23.70;99.90
14283;DHT22;7225;59.282;18.344;2022-08-01T14:00:30;23.60;99.90
14283;DHT22;7225;59.282;18.344;2022-08-01T14:02:59;23.50;99.90
14283;DHT22;7225;59.282;18.344;2022-08-01T14:05:28;23.50;99.90
14283;DHT22;7225;59.282;18.344;2022-08-01T14:07:56;23.40;99.90
14283;DHT22;7225;59.282;18.344;2022-08-01T14:10:25;23.50;99.90
14283;DHT22;7225;59.282;18.344;2022-08-01T14:12:52;23.40;99.90
14283;DHT22;7225;59.282;18.344;2022-08-01T14:15:24;23.50;99.90
14283;DHT22;7225;59.282;18.344;2022-08-01T14:18:08;23.80;99.90
14283;DHT22;7225;59.282;18.344;2022-08-01T14:20:38;23.80;99.90
14283;DHT22;7225;59.282;18.344;2022-08-01T14:23:06;23.70;99.90
14283;DHT22;7225;59.282;18.344;2022-08-01T14:25:38;23.60;99.90
14283;DHT22;7225;59.282;18.344;2022-08-01T14:28:25;23.60;99.90
14283;DHT22;7225;59.282;18.344;2022-08-01T14:30:55;23.60;99.90
14283;DHT22;7225;59.282;18.344;2022-08-01T14:33:23;23.60;99.90
14283;DHT22;7225;59.282;18.344;2022-08-01T14:35:50;23.50;99.90
14283;DHT22;7225;59.282;18.344;2022-08-01T14:38:35;23.50;99.90
14283;DHT22;7225;59.282;18.344;2022-08-01T14:41:04;23.40;99.90
14283;DHT22;7225;59.282;18.344;2022-08-01T14:43:32;23.40;99.90
14283;DHT22;7225;59.282;18.344;2022-08-01T14:46:01;23.40;99.90
14283;DHT22;7225;59.282;18.344;2022-08-01T14:48:31;23.50;99.90
14283;DHT22;7225;59.282;18.344;2022-08-01T14:51:00;23.50;99.90
14283;DHT22;7225;59.282;18.344;2022-08-01T14:53:31;23.50;99.90
14283;DHT22;7225;59.282;18.344;2022-08-01T14:56:06;23.60;99.90
14283;DHT22;7225;59.282;18.344;2022-08-01T14:58:34;23.60;99.90
14283;DHT22;7225;59.282;18.344;2022-08-01T15:01:02;23.50;99.90
14283;DHT22;7225;59.282;18.344;2022-08-01T15:03:31;23.40;99.90
14283;DHT22;7225;59.282;18.344;2022-08-01T15:06:01;23.40;99.90
14283;DHT22;7225;59.282;18.344;2022-08-01T15:08:30;23.20;99.90
14283;DHT22;7225;59.282;18.344;2022-08-01T15:11:00;23.20;99.90
14283;DHT22;7225;59.282;18.344;2022-08-01T15:13:28;23.10;99.90
14283;DHT22;7225;59.282;18.344;2022-08-01T15:15:59;23.10;99.90
14283;DHT22;7225;59.282;18.344;2022-08-01T15:18:27;23.00;99.90
14283;DHT22;7225;59.282;18.344;2022-08-01T15:20:56;23.00;99.90
14283;DHT22;7225;59.282;18.344;2022-08-01T15:23:25;23.00;99.90
14283;DHT22;7225;59.282;18.344;2022-08-01T15:25:53;23.00;99.90
14283;DHT22;7225;59.282;18.344;2022-08-01T15:28:21;23.10;99.90
14283;DHT22;7225;59.282;18.344;2022-08-01T15:30:50;23.10;99.90
14283;DHT22;7225;59.282;18.344;2022-08-01T15:33:18;23.10;99.90
14283;DHT22;7225;59.282;18.344;2022-08-01T15:35:48;23.10;99.90
14283;DHT22;7225;59.282;18.344;2022-08-01T15:38:19;23.10;99.90
14283;DHT22;7225;59.282;18.344;2022-08-01T15:40:47;22.90;99.90
14283;DHT22;7225;59.282;18.344;2022-08-01T15:43:16;22.90;99.90
14283;DHT22;7225;59.282;18.344;2022-08-01T15:45:48;22.90;99.90
14283;DHT22;7225;59.282;18.344;2022-08-01T15:48:16;22.80;99.90
14283;DHT22;7225;59.282;18.344;2022-08-01T15:50:45;22.80;99.90
14283;DHT22;7225;59.282;18.344;2022-08-01T15:53:12;22.90;99.90
14283;DHT22;7225;59.282;18.344;2022-08-01T15:55:41;23.00;99.90
14283;DHT22;7225;59.282;18.344;2022-08-01T15:58:19;22.90;99.90
14283;DHT22;7225;59.282;18.344;2022-08-01T16:00:48;22.90;99.90
14283;DHT22;7225;59.282;18.344;2022-08-01T16:03:16;22.90;99.90
14283;DHT22;7225;59.282;18.344;2022-08-01T16:05:44;22.90;99.90
14283;DHT22;7225;59.282;18.344;2022-08-01T16:08:11;22.80;99.90
14283;DHT22;7225;59.282;18.344;2022-08-01T16:10:41;22.80;99.90
14283;DHT22;7225;59.282;18.344;2022-08-01T16:13:09;22.70;99.90
14283;DHT22;7225;59.282;18.344;2022-08-01T16:15:38;22.70;99.90
14283;DHT22;7225;59.282;18.344;2022-08-01T16:18:07;22.60;99.90
14283;DHT22;7225;59.282;18.344;2022-08-01T16:20:34;22.60;99.90